createdAt,value
2023-01-25T00:01:54.278Z,4.85
2023-01-25T00:04:22.088Z,5.32
2023-01-25T00:09:16.640Z,5.18
2023-01-25T00:11:43.860Z,5.07
2023-01-25T00:14:11.396Z,4.75
2023-01-25T00:16:38.679Z,5.13
2023-01-25T00:19:06.860Z,5.00
2023-01-25T00:21:33.336Z,6.20
2023-01-25T00:23:59.801Z,5.57
2023-01-25T00:26:27.014Z,5.35
2023-01-25T00:28:54.833Z,6.15
2023-01-25T00:34:25.668Z,5.38
2023-01-25T00:36:55.706Z,5.40
2023-01-25T00:39:22.053Z,4.60
2023-01-25T00:41:48.405Z,5.68
2023-01-25T00:44:14.853Z,4.97
2023-01-25T00:46:41.170Z,5.40
2023-01-25T00:49:18.909Z,4.82
2023-01-25T00:51:45.318Z,5.90
2023-01-25T00:54:11.597Z,5.20
2023-01-25T00:56:37.883Z,5.55
2023-01-25T00:59:04.203Z,5.32
2023-01-25T01:01:30.516Z,4.97
2023-01-25T01:03:56.844Z,5.55
2023-01-25T01:06:23.159Z,5.43
2023-01-25T01:08:49.463Z,4.95
2023-01-25T01:11:15.771Z,5.78
2023-01-25T01:13:42.209Z,5.13
2023-01-25T01:16:11.446Z,4.97
2023-01-25T01:18:42.889Z,5.43
2023-01-25T01:21:10.339Z,5.47
2023-01-25T01:23:36.855Z,6.22
2023-01-25T01:26:05.498Z,5.30
2023-01-25T01:28:32.946Z,5.28
2023-01-25T01:31:04.072Z,5.47
2023-01-25T01:33:30.452Z,5.78
2023-01-25T01:35:57.088Z,6.03
2023-01-25T01:38:23.483Z,5.53
2023-01-25T01:40:50.474Z,5.85
2023-01-25T01:43:22.046Z,5.78
2023-01-25T01:45:48.353Z,6.07
2023-01-25T01:48:32.762Z,6.57
2023-01-25T01:51:02.855Z,6.00
2023-01-25T01:53:32.054Z,5.60
2023-01-25T01:56:02.068Z,6.38
2023-01-25T01:58:29.322Z,5.45
2023-01-25T02:00:56.053Z,5.80
2023-01-25T02:03:23.015Z,6.18
2023-01-25T02:06:02.721Z,6.28
2023-01-25T02:08:33.178Z,6.32
2023-01-25T02:11:01.673Z,6.18
2023-01-25T02:13:28.205Z,5.78
2023-01-25T02:15:54.669Z,5.28
2023-01-25T02:18:21.061Z,5.45
2023-01-25T02:20:51.653Z,5.75
2023-01-25T02:23:42.821Z,5.95
2023-01-25T02:26:09.816Z,4.97
2023-01-25T02:28:53.828Z,5.32
2023-01-25T02:31:20.166Z,5.03
2023-01-25T02:33:47.388Z,6.03
2023-01-25T02:36:20.277Z,5.35
2023-01-25T02:38:54.446Z,5.05
2023-01-25T02:41:38.974Z,5.68
2023-01-25T02:44:10.142Z,6.38
2023-01-25T02:46:38.768Z,4.88
2023-01-25T02:49:07.271Z,5.07
2023-01-25T02:51:35.801Z,5.35
2023-01-25T02:54:04.356Z,4.53
2023-01-25T02:56:30.788Z,5.90
2023-01-25T02:58:57.078Z,4.55
2023-01-25T03:01:23.971Z,5.47
2023-01-25T03:03:50.374Z,4.95
2023-01-25T03:06:16.679Z,5.18
2023-01-25T03:08:43.093Z,4.72
2023-01-25T03:11:09.592Z,4.95
2023-01-25T03:13:36.291Z,5.15
2023-01-25T03:16:10.811Z,5.30
2023-01-25T03:18:37.771Z,4.40
2023-01-25T03:21:12.061Z,5.63
2023-01-25T03:23:38.858Z,5.07
2023-01-25T03:26:11.068Z,5.30
2023-01-25T03:28:38.858Z,4.78
2023-01-25T03:33:32.126Z,5.35
2023-01-25T03:35:58.760Z,4.60
2023-01-25T03:38:25.460Z,5.57
2023-01-25T03:40:52.090Z,4.60
2023-01-25T03:43:18.869Z,4.90
2023-01-25T03:45:45.215Z,5.05
2023-01-25T03:48:11.547Z,4.78
2023-01-25T03:50:37.817Z,5.55
2023-01-25T03:53:04.136Z,5.15
2023-01-25T03:55:30.442Z,5.68
2023-01-25T03:57:56.878Z,4.90
2023-01-25T04:00:23.280Z,5.68
2023-01-25T04:02:49.595Z,4.70
2023-01-25T04:05:15.998Z,5.70
2023-01-25T04:07:42.415Z,4.65
2023-01-25T04:10:09.519Z,4.40
2023-01-25T04:12:35.856Z,5.18
2023-01-25T04:15:02.272Z,4.80
2023-01-25T04:17:28.561Z,4.80
2023-01-25T04:19:54.867Z,5.03
2023-01-25T04:22:21.275Z,4.45
2023-01-25T04:24:47.693Z,5.22
2023-01-25T04:27:13.996Z,5.05
2023-01-25T04:29:41.865Z,5.20
2023-01-25T04:32:08.691Z,4.85
2023-01-25T04:34:35.130Z,4.68
2023-01-25T04:37:01.628Z,4.57
2023-01-25T04:39:28.115Z,4.95
2023-01-25T04:41:54.510Z,4.78
2023-01-25T04:44:20.824Z,4.95
2023-01-25T04:46:47.114Z,5.18
2023-01-25T04:49:13.452Z,4.50
2023-01-25T04:51:39.904Z,5.00
2023-01-25T04:54:06.203Z,5.15
2023-01-25T04:56:32.814Z,4.97
2023-01-25T04:58:59.144Z,4.53
2023-01-25T05:01:25.481Z,5.15
2023-01-25T05:03:51.814Z,5.07
2023-01-25T05:06:18.226Z,4.90
2023-01-25T05:08:44.522Z,4.60
2023-01-25T05:11:10.828Z,4.72
2023-01-25T05:13:38.093Z,4.60
2023-01-25T05:16:04.678Z,4.57
2023-01-25T05:18:39.057Z,4.85
2023-01-25T05:21:13.699Z,4.63
2023-01-25T05:23:40.000Z,5.97
2023-01-25T05:26:06.332Z,5.68
2023-01-25T05:28:32.640Z,5.60
2023-01-25T05:30:59.048Z,5.22
2023-01-25T05:33:25.498Z,5.47
2023-01-25T05:35:51.796Z,5.38
2023-01-25T05:38:18.129Z,5.97
2023-01-25T05:40:44.417Z,5.35
2023-01-25T05:43:10.713Z,5.32
2023-01-25T05:45:37.101Z,5.35
2023-01-25T05:48:03.595Z,5.45
2023-01-25T05:50:29.888Z,5.80
2023-01-25T05:52:56.191Z,5.65
2023-01-25T05:55:22.643Z,4.88
2023-01-25T05:57:49.033Z,5.80
2023-01-25T06:00:15.810Z,5.45
2023-01-25T06:02:42.293Z,5.07
2023-01-25T06:05:09.486Z,4.80
2023-01-25T06:07:36.427Z,5.65
2023-01-25T06:10:04.548Z,5.57
2023-01-25T06:12:31.098Z,5.53
2023-01-25T06:14:57.412Z,5.75
2023-01-25T06:17:23.792Z,5.75
2023-01-25T06:19:50.123Z,6.25
2023-01-25T06:22:16.408Z,6.57
2023-01-25T06:24:42.685Z,6.97
2023-01-25T06:27:09.122Z,5.75
2023-01-25T06:29:35.423Z,6.00
2023-01-25T06:32:01.824Z,6.07
2023-01-25T06:34:28.248Z,5.75
2023-01-25T06:36:54.685Z,5.88
2023-01-25T06:39:20.978Z,7.00
2023-01-25T06:41:47.699Z,5.90
2023-01-25T06:44:14.002Z,5.95
2023-01-25T06:46:40.386Z,6.00
2023-01-25T06:49:06.708Z,6.32
2023-01-25T06:51:33.125Z,5.05
2023-01-25T06:54:02.977Z,4.90
2023-01-25T06:56:29.274Z,7.05
2023-01-25T06:58:55.549Z,5.50
2023-01-25T07:01:24.047Z,6.85
2023-01-25T07:03:52.759Z,5.32
2023-01-25T07:06:19.658Z,6.70
2023-01-25T07:08:46.661Z,5.60
2023-01-25T07:11:13.900Z,6.47
2023-01-25T07:13:42.434Z,6.07
2023-01-25T07:16:12.767Z,5.53
2023-01-25T07:18:39.205Z,6.43
2023-01-25T07:21:08.112Z,5.95
2023-01-25T07:23:34.873Z,5.88
2023-01-25T07:26:01.834Z,6.43
2023-01-25T07:28:28.373Z,5.93
2023-01-25T07:30:55.148Z,5.60
2023-01-25T07:33:21.443Z,5.85
2023-01-25T07:35:47.780Z,6.32
2023-01-25T07:38:14.925Z,5.97
2023-01-25T07:40:41.254Z,6.03
2023-01-25T07:43:07.664Z,5.57
2023-01-25T07:45:33.932Z,6.40
2023-01-25T07:48:00.479Z,6.35
2023-01-25T07:50:27.536Z,5.93
2023-01-25T07:52:54.720Z,7.25
2023-01-25T07:55:21.841Z,6.65
2023-01-25T07:57:48.576Z,6.43
2023-01-25T08:00:15.134Z,6.32
2023-01-25T08:02:41.450Z,6.05
2023-01-25T08:05:08.446Z,5.70
2023-01-25T08:07:34.996Z,6.90
2023-01-25T08:10:01.295Z,7.00
2023-01-25T08:12:27.580Z,5.88
2023-01-25T08:14:54.003Z,7.03
2023-01-25T08:17:20.444Z,6.63
2023-01-25T08:19:46.767Z,6.95
2023-01-25T08:22:13.195Z,6.05
2023-01-25T08:24:39.563Z,6.78
2023-01-25T08:27:06.054Z,6.47
2023-01-25T08:29:32.461Z,5.55
2023-01-25T08:31:58.915Z,6.55
2023-01-25T08:34:25.387Z,4.43
2023-01-25T08:39:22.944Z,5.60
2023-01-25T08:41:49.255Z,6.78
2023-01-25T08:44:15.766Z,6.45
2023-01-25T08:46:42.161Z,5.82
2023-01-25T08:49:09.638Z,5.38
2023-01-25T08:51:35.961Z,6.00
2023-01-25T08:54:04.578Z,6.00
2023-01-25T08:56:30.918Z,6.35
2023-01-25T08:58:57.483Z,6.07
2023-01-25T09:01:23.841Z,6.78
2023-01-25T09:03:51.118Z,6.13
2023-01-25T09:06:18.645Z,7.03
2023-01-25T09:08:45.011Z,5.40
2023-01-25T09:11:14.075Z,6.70
2023-01-25T09:13:40.376Z,6.00
2023-01-25T09:16:09.760Z,5.97
2023-01-25T09:18:37.242Z,6.85
2023-01-25T09:21:08.332Z,6.10
2023-01-25T09:23:40.129Z,6.00
2023-01-25T09:26:17.840Z,5.90
2023-01-25T09:28:48.270Z,5.35
2023-01-25T09:31:21.697Z,6.38
2023-01-25T09:33:50.711Z,6.30
2023-01-25T09:36:17.497Z,6.80
2023-01-25T09:38:43.840Z,6.40
2023-01-25T09:41:33.379Z,6.03
2023-01-25T09:44:38.864Z,6.18
2023-01-25T09:47:29.843Z,5.53
2023-01-25T09:50:32.110Z,6.18
2023-01-25T09:53:14.043Z,6.32
2023-01-25T09:55:41.261Z,5.60
2023-01-25T09:58:14.466Z,6.60
2023-01-25T10:00:52.588Z,5.38
2023-01-25T10:03:27.245Z,5.45
2023-01-25T10:05:57.795Z,5.28
2023-01-25T10:08:38.857Z,5.60
2023-01-25T10:11:08.852Z,5.38
2023-01-25T10:13:35.173Z,5.85
2023-01-25T10:16:20.871Z,5.88
2023-01-25T10:19:04.337Z,6.13
2023-01-25T10:21:37.847Z,5.70
2023-01-25T10:24:29.086Z,6.25
2023-01-25T10:26:57.593Z,6.78
2023-01-25T10:29:36.449Z,5.82
2023-01-25T10:32:17.276Z,5.97
2023-01-25T10:34:56.318Z,5.63
2023-01-25T10:37:31.017Z,5.88
2023-01-25T10:40:15.350Z,5.82
2023-01-25T10:42:48.642Z,6.05
2023-01-25T10:45:16.593Z,6.20
2023-01-25T10:47:47.403Z,6.13
2023-01-25T10:50:39.837Z,6.45
2023-01-25T10:53:21.274Z,6.32
2023-01-25T10:56:23.327Z,6.18
2023-01-25T10:58:52.435Z,6.20
2023-01-25T11:01:31.253Z,5.80
2023-01-25T11:03:58.583Z,5.18
2023-01-25T11:06:39.317Z,5.40
2023-01-25T11:09:20.601Z,5.35
2023-01-25T11:11:58.855Z,5.72
2023-01-25T11:14:27.823Z,6.03
2023-01-25T11:16:56.031Z,6.20
2023-01-25T11:19:31.838Z,6.18
2023-01-25T11:22:00.122Z,5.60
2023-01-25T11:24:32.300Z,7.80
2023-01-25T11:27:19.370Z,7.18
2023-01-25T11:30:06.071Z,6.82
2023-01-25T11:32:32.849Z,5.50
2023-01-25T11:34:59.502Z,5.93
2023-01-25T11:37:43.088Z,5.55
2023-01-25T11:40:29.197Z,5.72
2023-01-25T11:45:51.007Z,4.95
2023-01-25T11:48:39.016Z,6.18
2023-01-25T11:51:20.069Z,4.75
2023-01-25T11:54:08.767Z,5.72
2023-01-25T11:57:00.739Z,4.93
2023-01-25T11:59:36.681Z,5.65
2023-01-25T12:02:29.957Z,4.65
2023-01-25T12:05:28.170Z,4.28
2023-01-25T12:11:00.064Z,5.15
2023-01-25T12:13:46.269Z,4.40
2023-01-25T12:16:38.189Z,4.80
2023-01-25T12:19:10.449Z,5.28
2023-01-25T12:21:59.708Z,5.65
2023-01-25T12:24:44.238Z,4.93
2023-01-25T12:27:26.185Z,5.10
2023-01-25T12:30:00.010Z,4.88
2023-01-25T12:35:27.250Z,4.85
2023-01-25T12:38:00.474Z,4.88
2023-01-25T12:40:47.516Z,5.30
2023-01-25T12:43:23.745Z,6.82
2023-01-25T12:45:53.331Z,6.45
2023-01-25T12:48:31.506Z,5.10
2023-01-25T12:50:59.646Z,5.28
2023-01-25T12:53:38.300Z,5.45
2023-01-25T12:56:07.765Z,5.40
2023-01-25T12:58:46.304Z,5.38
2023-01-25T13:01:44.096Z,5.47
2023-01-25T13:04:34.221Z,5.80
2023-01-25T13:07:07.451Z,5.55
2023-01-25T13:09:44.356Z,5.55
2023-01-25T13:12:11.930Z,5.72
2023-01-25T13:14:40.651Z,5.60
2023-01-25T13:17:19.058Z,5.75
2023-01-25T13:19:45.496Z,5.47
2023-01-25T13:22:13.017Z,5.35
2023-01-25T13:25:04.002Z,5.20
2023-01-25T13:27:31.323Z,5.20
2023-01-25T13:30:02.148Z,5.68
2023-01-25T13:32:28.444Z,5.57
2023-01-25T13:34:54.718Z,5.63
2023-01-25T13:37:33.147Z,5.57
2023-01-25T13:40:05.972Z,5.05
2023-01-25T13:42:34.349Z,4.95
2023-01-25T13:45:17.184Z,5.32
2023-01-25T13:47:58.685Z,5.25
2023-01-25T13:50:33.317Z,4.82
2023-01-25T13:53:05.913Z,5.38
2023-01-25T13:55:47.531Z,6.57
2023-01-25T13:58:18.388Z,5.78
2023-01-25T14:00:50.151Z,4.95
2023-01-25T14:03:17.121Z,4.32
2023-01-25T14:05:50.985Z,5.13
2023-01-25T14:08:19.791Z,5.40
2023-01-25T14:10:46.979Z,7.43
2023-01-25T14:13:17.307Z,5.75
2023-01-25T14:15:58.840Z,7.93
2023-01-25T14:18:33.402Z,6.40
2023-01-25T14:21:10.315Z,5.10
2023-01-25T14:23:36.635Z,5.88
2023-01-25T14:26:03.164Z,5.70
2023-01-25T14:28:30.282Z,5.63
2023-01-25T14:30:59.074Z,7.25
2023-01-25T14:33:28.902Z,6.80
2023-01-25T14:36:16.120Z,6.72
2023-01-25T14:38:50.407Z,5.70
2023-01-25T14:41:30.471Z,5.45
2023-01-25T14:43:59.184Z,7.47
2023-01-25T14:46:25.420Z,8.23
2023-01-25T14:49:06.023Z,6.20
2023-01-25T14:51:32.811Z,5.40
2023-01-25T14:54:12.688Z,5.45
2023-01-25T14:56:46.912Z,5.25
2023-01-25T14:59:30.452Z,5.78
2023-01-25T15:02:24.962Z,5.43
2023-01-25T15:05:14.577Z,4.63
2023-01-25T15:07:50.689Z,5.63
2023-01-25T15:10:18.428Z,5.10
2023-01-25T15:13:11.683Z,5.55
2023-01-25T15:15:59.916Z,5.82
2023-01-25T15:18:41.504Z,5.25
2023-01-25T15:21:16.319Z,5.10
2023-01-25T15:23:47.879Z,6.05
2023-01-25T15:26:20.386Z,5.03
2023-01-25T15:28:47.858Z,4.68
2023-01-25T15:31:31.875Z,6.57
2023-01-25T15:33:59.154Z,6.28
2023-01-25T15:36:25.938Z,5.85
2023-01-25T15:38:52.261Z,5.15
2023-01-25T15:41:18.847Z,6.38
2023-01-25T15:43:46.245Z,6.07
2023-01-25T15:46:19.639Z,6.50
2023-01-25T15:48:46.933Z,6.63
2023-01-25T15:51:13.372Z,7.55
2023-01-25T15:53:40.299Z,6.75
2023-01-25T15:56:13.800Z,6.65
2023-01-25T15:58:42.646Z,6.75
2023-01-25T16:01:09.291Z,5.95
2023-01-25T16:03:35.854Z,5.95
2023-01-25T16:06:05.883Z,5.53
2023-01-25T16:08:32.185Z,6.18
2023-01-25T16:10:58.513Z,6.68
2023-01-25T16:13:25.072Z,6.68
2023-01-25T16:15:55.712Z,7.47
2023-01-25T16:18:22.120Z,6.80
2023-01-25T16:20:48.415Z,7.57
2023-01-25T16:23:14.832Z,7.50
2023-01-25T16:25:42.323Z,8.27
2023-01-25T16:28:15.907Z,8.10
2023-01-25T16:30:43.043Z,6.63
2023-01-25T16:33:09.468Z,8.00
2023-01-25T16:35:35.739Z,6.38
2023-01-25T16:38:02.135Z,6.65
2023-01-25T16:40:34.439Z,5.07
2023-01-25T16:43:00.815Z,5.72
2023-01-25T16:45:27.116Z,6.80
2023-01-25T16:47:53.523Z,6.40
2023-01-25T16:50:21.711Z,5.65
2023-01-25T16:52:48.301Z,6.00
2023-01-25T16:55:15.300Z,5.00
2023-01-25T16:57:43.272Z,5.03
2023-01-25T17:00:14.771Z,13.30
2023-01-25T17:02:53.454Z,6.88
2023-01-25T17:05:26.195Z,5.60
2023-01-25T17:07:52.607Z,6.50
2023-01-25T17:10:19.005Z,6.25
2023-01-25T17:12:45.397Z,6.55
2023-01-25T17:15:11.807Z,6.15
2023-01-25T17:17:38.102Z,6.25
2023-01-25T17:20:04.728Z,6.85
2023-01-25T17:22:31.127Z,5.78
2023-01-25T17:24:57.438Z,7.70
2023-01-25T17:27:23.735Z,6.28
2023-01-25T17:29:50.284Z,6.50
2023-01-25T17:32:16.615Z,7.05
2023-01-25T17:34:43.025Z,5.82
2023-01-25T17:37:09.463Z,6.18
2023-01-25T17:39:35.747Z,6.70
2023-01-25T17:42:03.494Z,6.45
2023-01-25T17:44:29.810Z,6.82
2023-01-25T17:46:56.116Z,7.93
2023-01-25T17:49:22.549Z,7.35
2023-01-25T17:51:49.015Z,8.38
2023-01-25T17:54:15.337Z,7.65
2023-01-25T17:56:41.766Z,7.45
2023-01-25T17:59:08.249Z,6.80
2023-01-25T18:01:35.540Z,7.03
2023-01-25T18:04:02.269Z,7.80
2023-01-25T18:06:30.643Z,6.85
2023-01-25T18:09:00.195Z,6.70
2023-01-25T18:11:31.972Z,7.05
2023-01-25T18:14:00.972Z,6.43
2023-01-25T18:16:29.534Z,6.88
2023-01-25T18:18:58.309Z,7.88
2023-01-25T18:21:27.677Z,7.22
2023-01-25T18:23:56.557Z,6.57
2023-01-25T18:26:31.228Z,6.75
2023-01-25T18:29:02.006Z,6.55
2023-01-25T18:31:28.464Z,7.35
2023-01-25T18:33:54.972Z,8.52
2023-01-25T18:36:21.290Z,7.15
2023-01-25T18:38:47.625Z,7.50
2023-01-25T18:41:13.977Z,7.20
2023-01-25T18:43:40.391Z,8.10
2023-01-25T18:46:06.847Z,8.30
2023-01-25T18:48:33.221Z,8.60
2023-01-25T18:51:08.685Z,9.05
2023-01-25T18:53:36.879Z,7.95
2023-01-25T18:56:05.451Z,8.25
2023-01-25T18:58:32.895Z,7.88
2023-01-25T19:01:08.233Z,8.50
2023-01-25T19:03:34.942Z,8.30
2023-01-25T19:06:01.925Z,7.47
2023-01-25T19:08:28.483Z,7.50
2023-01-25T19:11:02.479Z,7.40
2023-01-25T19:13:32.147Z,6.43
2023-01-25T19:16:02.649Z,7.82
2023-01-25T19:18:33.365Z,8.07
2023-01-25T19:21:00.163Z,7.78
2023-01-25T19:26:33.317Z,7.65
2023-01-25T19:28:59.600Z,8.05
2023-01-25T19:31:27.207Z,6.90
2023-01-25T19:34:01.897Z,7.72
2023-01-25T19:36:30.110Z,8.15
2023-01-25T19:38:56.797Z,7.50
2023-01-25T19:41:25.756Z,9.27
2023-01-25T19:43:54.089Z,8.43
2023-01-25T19:46:23.175Z,8.13
2023-01-25T19:48:51.114Z,7.43
2023-01-25T19:51:22.998Z,8.20
2023-01-25T19:53:53.721Z,7.82
2023-01-25T19:56:20.798Z,8.23
2023-01-25T19:58:48.736Z,7.22
2023-01-25T20:01:20.912Z,7.85
2023-01-25T20:03:47.975Z,7.55
2023-01-25T20:06:17.342Z,6.57
2023-01-25T20:08:45.807Z,6.32
2023-01-25T20:11:17.885Z,7.25
2023-01-25T20:13:44.216Z,7.88
2023-01-25T20:16:11.920Z,6.97
2023-01-25T20:18:38.974Z,6.20
2023-01-25T20:21:12.236Z,7.25
2023-01-25T20:23:41.040Z,6.53
2023-01-25T20:26:20.007Z,7.07
2023-01-25T20:28:48.959Z,6.75
2023-01-25T20:31:30.487Z,7.38
2023-01-25T20:33:59.458Z,7.43
2023-01-25T20:36:27.108Z,7.35
2023-01-25T20:38:54.091Z,7.25
2023-01-25T20:41:20.736Z,7.30
2023-01-25T20:43:57.929Z,7.68
2023-01-25T20:46:24.690Z,6.50
2023-01-25T20:48:53.382Z,7.35
2023-01-25T20:51:20.378Z,11.30
2023-01-25T20:53:47.908Z,7.88
2023-01-25T20:56:15.146Z,8.60
2023-01-25T20:58:42.543Z,8.55
2023-01-25T21:01:17.497Z,7.57
2023-01-25T21:03:44.028Z,7.30
2023-01-25T21:06:11.159Z,7.95
2023-01-25T21:08:37.574Z,9.05
2023-01-25T21:11:04.547Z,8.18
2023-01-25T21:13:31.100Z,8.45
2023-01-25T21:16:02.522Z,7.68
2023-01-25T21:18:33.806Z,8.10
2023-01-25T21:21:24.213Z,8.52
2023-01-25T21:23:51.249Z,7.53
2023-01-25T21:26:29.347Z,7.93
2023-01-25T21:28:56.005Z,8.68
2023-01-25T21:31:25.966Z,6.82
2023-01-25T21:33:53.146Z,9.18
2023-01-25T21:36:20.665Z,10.80
2023-01-25T21:38:49.035Z,12.05
2023-01-25T21:41:23.656Z,8.48
2023-01-25T21:43:55.286Z,9.02
2023-01-25T21:46:23.048Z,7.60
2023-01-25T21:48:49.397Z,6.78
2023-01-25T21:51:15.691Z,7.53
2023-01-25T21:53:41.981Z,10.10
2023-01-25T21:56:08.286Z,8.15
2023-01-25T21:58:34.552Z,6.82
2023-01-25T22:01:01.251Z,6.95
2023-01-25T22:03:27.571Z,7.75
2023-01-25T22:05:54.529Z,8.63
2023-01-25T22:08:20.798Z,7.45
2023-01-25T22:10:47.117Z,8.38
2023-01-25T22:13:13.445Z,6.93
2023-01-25T22:15:39.916Z,7.40
2023-01-25T22:18:06.251Z,6.55
2023-01-25T22:20:32.564Z,6.53
2023-01-25T22:22:58.871Z,6.35
2023-01-25T22:25:25.564Z,6.13
2023-01-25T22:27:59.970Z,6.35
2023-01-25T22:30:26.272Z,7.93
2023-01-25T22:32:52.557Z,6.20
2023-01-25T22:35:18.950Z,6.40
2023-01-25T22:37:45.288Z,5.93
2023-01-25T22:40:12.402Z,6.55
2023-01-25T22:42:38.955Z,5.75
2023-01-25T22:45:06.025Z,6.07
2023-01-25T22:47:32.308Z,6.70
2023-01-25T22:49:58.681Z,6.70
2023-01-25T22:52:24.971Z,6.60
2023-01-25T22:54:51.253Z,6.88
2023-01-25T22:57:17.614Z,6.53
2023-01-25T22:59:43.883Z,5.97
2023-01-25T23:02:10.222Z,7.00
2023-01-25T23:04:36.567Z,5.55
2023-01-25T23:07:03.065Z,5.60
2023-01-25T23:09:29.364Z,5.15
2023-01-25T23:11:55.755Z,5.80
2023-01-25T23:14:22.152Z,5.70
2023-01-25T23:16:48.475Z,5.80
2023-01-25T23:19:15.498Z,5.68
2023-01-25T23:21:42.025Z,5.53
2023-01-25T23:24:09.129Z,5.40
2023-01-25T23:26:36.329Z,5.13
2023-01-25T23:29:04.580Z,5.38
2023-01-25T23:31:31.093Z,5.35
2023-01-25T23:34:00.739Z,4.70
2023-01-25T23:36:32.543Z,5.63
2023-01-25T23:38:59.370Z,6.47
2023-01-25T23:41:28.191Z,6.13
2023-01-25T23:43:55.795Z,6.43
2023-01-25T23:46:23.404Z,6.30
2023-01-25T23:48:50.059Z,6.00
2023-01-25T23:51:17.321Z,5.50
2023-01-25T23:53:44.159Z,5.93
2023-01-25T23:56:13.942Z,5.85
2023-01-25T23:58:40.359Z,5.65
